Time;durP1;ratioP1;P1;durP2;ratioP2;P2;SDS_P1;SDS_P2;PMS_P1;PMS_P2;Temp;Humidity;BMP_temperature;BMP_pressure;BME280_temperature;BME280_humidity;BME280_pressure;Samples;Min_cycle;Max_cycle;Signal;HPM_P1;HPM_P2
2023/04/07 00:01:27;;;;;;;19.92;18.83;;;;;;;;;;5067765;28;20028;-60
2023/04/07 00:03:53;;;;;;;19.48;18.35;;;;;;;;;;5068036;28;20055;-61
2023/04/07 00:06:18;;;;;;;18.98;17.95;;;;;;;;;;5067670;28;20089;-62
2023/04/07 00:08:43;;;;;;;19.70;18.55;;;;;;;;;;5051646;28;20033;-61
2023/04/07 00:11:09;;;;;;;18.77;17.73;;;;;;;;;;5052507;28;20024;-62
2023/04/07 00:13:34;;;;;;;19.38;18.27;;;;;;;;;;5055815;28;20025;-62
2023/04/07 00:15:59;;;;;;;18.50;17.60;;;;;;;;;;5055354;28;20052;-61
2023/04/07 00:18:25;;;;;;;19.00;18.00;;;;;;;;;;5054411;28;20017;-61
2023/04/07 00:20:50;;;;;;;19.95;18.85;;;;;;;;;;5054085;28;20017;-61
2023/04/07 00:23:16;;;;;;;20.50;19.40;;;;;;;;;;5046345;28;20028;-61
2023/04/07 00:25:41;;;;;;;21.10;19.90;;;;;;;;;;5050274;28;20033;-61
2023/04/07 00:28:06;;;;;;;22.48;20.98;;;;;;;;;;5052579;28;20017;-61
2023/04/07 00:30:32;;;;;;;21.92;20.63;;;;;;;;;;5053681;28;20106;-60
2023/04/07 00:32:57;;;;;;;21.80;20.52;;;;;;;;;;5045160;28;20060;-61
2023/04/07 00:35:22;;;;;;;22.38;20.98;;;;;;;;;;5053827;28;20437;-60
2023/04/07 00:37:48;;;;;;;21.85;20.55;;;;;;;;;;5051900;28;20477;-60
2023/04/07 00:40:13;;;;;;;22.45;21.15;;;;;;;;;;5054253;28;20104;-62
2023/04/07 00:42:38;;;;;;;21.50;20.30;;;;;;;;;;5053796;28;20100;-62
2023/04/07 00:45:04;;;;;;;21.17;20.00;;;;;;;;;;5049228;28;20026;-61
2023/04/07 00:47:30;;;;;;;21.75;20.45;;;;;;;;;;5054156;28;20024;-61
2023/04/07 00:49:55;;;;;;;21.17;19.98;;;;;;;;;;5052745;28;20025;-60
2023/04/07 00:52:27;;;;;;;21.42;20.23;;;;;;;;;;5044495;28;20021;-61
2023/04/07 00:54:53;;;;;;;21.92;20.63;;;;;;;;;;5053426;28;20021;-60
2023/04/07 00:57:19;;;;;;;22.20;21.00;;;;;;;;;;5053520;28;20056;-60
2023/04/07 00:59:44;;;;;;;24.10;22.70;;;;;;;;;;5053597;28;20029;-62
2023/04/07 01:02:14;;;;;;;24.92;23.42;;;;;;;;;;5047658;28;20101;-60
2023/04/07 01:05:09;;;;;;;25.40;23.83;;;;;;;;;;5053860;28;20028;-60
2023/04/07 01:07:34;;;;;;;;;;;;;;;;;;5052061;28;20033;-61
2023/04/07 01:10:06;;;;;;;24.00;22.70;;;;;;;;;;5053311;28;19904;-61
2023/04/07 01:12:34;;;;;;;24.73;23.42;;;;;;;;;;5053267;28;20488;-62
2023/04/07 01:15:03;;;;;;;25.50;24.00;;;;;;;;;;5053107;28;20423;-60
2023/04/07 01:17:30;;;;;;;25.63;24.17;;;;;;;;;;5053109;28;20473;-61
2023/04/07 01:20:02;;;;;;;25.25;23.95;;;;;;;;;;5049227;28;20035;-60
2023/04/07 01:22:32;;;;;;;27.48;25.75;;;;;;;;;;5048028;28;20013;-60
2023/04/07 01:25:16;;;;;;;26.85;25.45;;;;;;;;;;5053048;28;20064;-60
2023/04/07 01:27:47;;;;;;;28.42;26.73;;;;;;;;;;5052789;28;20032;-60
2023/04/07 01:30:13;;;;;;;26.80;25.40;;;;;;;;;;5052724;28;20079;-60
2023/04/07 01:32:40;;;;;;;22.55;21.35;;;;;;;;;;5051952;28;20379;-60
2023/04/07 01:35:08;;;;;;;22.17;20.98;;;;;;;;;;5052446;28;20033;-60
2023/04/07 01:37:36;;;;;;;22.02;20.83;;;;;;;;;;5045294;28;20019;-60
2023/04/07 01:40:02;;;;;;;22.67;21.48;;;;;;;;;;5052488;28;20017;-61
2023/04/07 01:42:28;;;;;;;21.80;20.70;;;;;;;;;;5045569;28;20041;-60
2023/04/07 01:44:54;;;;;;;22.27;20.98;;;;;;;;;;5053567;28;20052;-61
2023/04/07 01:47:20;;;;;;;22.17;20.98;;;;;;;;;;5048010;28;20523;-61
2023/04/07 01:49:46;;;;;;;22.35;21.05;;;;;;;;;;5045101;28;20029;-60
2023/04/07 01:52:11;;;;;;;23.00;21.63;;;;;;;;;;5053612;28;20025;-61
2023/04/07 01:54:37;;;;;;;21.40;20.25;;;;;;;;;;5044907;28;20025;-60
2023/04/07 01:57:02;;;;;;;22.92;21.42;;;;;;;;;;5044896;28;20045;-60
2023/04/07 01:59:27;;;;;;;21.63;20.35;;;;;;;;;;5052154;28;20028;-60
2023/04/07 02:01:53;;;;;;;21.45;20.15;;;;;;;;;;5047774;28;20025;-60
2023/04/07 02:04:26;;;;;;;21.23;19.92;;;;;;;;;;5049995;28;20056;-61
2023/04/07 02:06:57;;;;;;;20.80;19.60;;;;;;;;;;5051017;28;20033;-61
2023/04/07 02:09:25;;;;;;;20.25;19.15;;;;;;;;;;5052212;28;20045;-62
2023/04/07 02:11:51;;;;;;;20.48;19.27;;;;;;;;;;5050563;28;20025;-65
2023/04/07 02:14:19;;;;;;;20.10;19.00;;;;;;;;;;5056008;28;20025;-61
2023/04/07 02:16:45;;;;;;;20.10;19.10;;;;;;;;;;5040365;28;20060;-61
2023/04/07 02:19:11;;;;;;;20.33;19.27;;;;;;;;;;5051257;28;20020;-61
2023/04/07 02:21:38;;;;;;;22.02;20.75;;;;;;;;;;5051547;28;20025;-61
2023/04/07 02:24:07;;;;;;;21.15;19.95;;;;;;;;;;5052073;28;20108;-62
2023/04/07 02:26:35;;;;;;;21.02;19.92;;;;;;;;;;5047682;28;20033;-62
2023/04/07 02:29:01;;;;;;;21.23;20.00;;;;;;;;;;5041517;28;20024;-61
2023/04/07 02:31:27;;;;;;;21.35;20.05;;;;;;;;;;5059513;28;20480;-60
2023/04/07 02:33:52;;;;;;;21.73;20.42;;;;;;;;;;5051703;28;20047;-60
2023/04/07 02:36:17;;;;;;;20.58;19.48;;;;;;;;;;5051604;28;20027;-61
2023/04/07 02:38:43;;;;;;;21.48;20.17;;;;;;;;;;5047682;28;20019;-61
2023/04/07 02:41:08;;;;;;;21.02;19.80;;;;;;;;;;5052022;28;20502;-60
2023/04/07 02:43:34;;;;;;;20.77;19.58;;;;;;;;;;5047695;28;20484;-60
2023/04/07 02:45:59;;;;;;;20.63;19.52;;;;;;;;;;5046897;28;20068;-60
2023/04/07 02:48:24;;;;;;;19.65;18.65;;;;;;;;;;5047123;28;20496;-61
2023/04/07 02:50:50;;;;;;;20.65;19.48;;;;;;;;;;5045688;28;20029;-62
2023/04/07 02:53:15;;;;;;;20.65;19.52;;;;;;;;;;5051521;28;20055;-61
2023/04/07 02:55:40;;;;;;;20.50;19.40;;;;;;;;;;5051322;28;20024;-62
2023/04/07 02:58:06;;;;;;;20.73;19.52;;;;;;;;;;5049299;28;20527;-61
2023/04/07 03:00:32;;;;;;;21.20;19.90;;;;;;;;;;5039384;28;20029;-62
2023/04/07 03:02:57;;;;;;;20.60;19.40;;;;;;;;;;5051573;28;20021;-61
2023/04/07 03:05:23;;;;;;;23.95;22.05;;;;;;;;;;5044006;28;20036;-62
2023/04/07 03:07:48;;;;;;;20.92;19.73;;;;;;;;;;5036229;28;20034;-60
2023/04/07 03:10:13;;;;;;;20.52;19.33;;;;;;;;;;5045774;28;20028;-60
2023/04/07 03:12:39;;;;;;;19.52;18.50;;;;;;;;;;5051287;28;20017;-60
2023/04/07 03:15:04;;;;;;;19.27;18.27;;;;;;;;;;5052981;28;20048;-60
2023/04/07 03:17:30;;;;;;;19.13;18.13;;;;;;;;;;5051190;28;20017;-62
2023/04/07 03:19:55;;;;;;;19.05;18.05;;;;;;;;;;5051113;28;20028;-60
2023/04/07 03:22:21;;;;;;;19.45;18.35;;;;;;;;;;5059865;28;20052;-60
2023/04/07 03:24:46;;;;;;;19.67;18.58;;;;;;;;;;5046997;28;20013;-61
2023/04/07 03:27:11;;;;;;;20.55;19.27;;;;;;;;;;5044065;28;20643;-60
2023/04/07 03:29:37;;;;;;;20.13;18.92;;;;;;;;;;5050858;28;20108;-60
2023/04/07 03:32:02;;;;;;;20.33;19.13;;;;;;;;;;5051439;28;20107;-60
2023/04/07 03:34:27;;;;;;;20.70;19.50;;;;;;;;;;5043318;28;20022;-60
2023/04/07 03:36:52;;;;;;;21.27;20.08;;;;;;;;;;5050905;28;20028;-60
2023/04/07 03:39:18;;;;;;;20.35;19.25;;;;;;;;;;5050930;28;20021;-60
2023/04/07 03:41:43;;;;;;;20.30;19.20;;;;;;;;;;5049523;28;20476;-61
2023/04/07 03:44:08;;;;;;;20.02;18.92;;;;;;;;;;5052983;28;20487;-60
2023/04/07 03:46:34;;;;;;;19.65;18.65;;;;;;;;;;5053967;28;20021;-60
2023/04/07 03:48:59;;;;;;;20.20;19.10;;;;;;;;;;5047696;28;20018;-61
2023/04/07 03:51:26;;;;;;;21.67;20.30;;;;;;;;;;5051820;28;20068;-61
2023/04/07 03:53:51;;;;;;;21.13;19.83;;;;;;;;;;5054483;28;20024;-60
2023/04/07 03:56:17;;;;;;;21.00;19.70;;;;;;;;;;5054368;28;20052;-60
2023/04/07 03:58:43;;;;;;;21.58;20.20;;;;;;;;;;5069659;28;20472;-61
2023/04/07 04:01:08;;;;;;;20.40;19.20;;;;;;;;;;5058520;28;20373;-61
2023/04/07 04:03:34;;;;;;;21.00;19.70;;;;;;;;;;5067116;28;20184;-61
2023/04/07 04:05:59;;;;;;;21.17;19.85;;;;;;;;;;5049520;28;20107;-60
2023/04/07 04:08:24;;;;;;;20.58;19.38;;;;;;;;;;5045552;28;20465;-61
2023/04/07 04:10:50;;;;;;;21.25;19.95;;;;;;;;;;5061023;28;20445;-60
2023/04/07 04:13:15;;;;;;;21.35;20.10;;;;;;;;;;5060632;28;20392;-60
2023/04/07 04:15:40;;;;;;;20.75;19.55;;;;;;;;;;5054104;28;20524;-60
2023/04/07 04:18:06;;;;;;;20.67;19.48;;;;;;;;;;5049348;28;20581;-60
2023/04/07 04:20:31;;;;;;;22.65;21.05;;;;;;;;;;5061021;28;20458;-60
2023/04/07 04:22:56;;;;;;;21.50;20.10;;;;;;;;;;5048835;28;20032;-60
2023/04/07 04:25:21;;;;;;;22.65;21.15;;;;;;;;;;5047190;28;20045;-61
2023/04/07 04:27:47;;;;;;;21.50;20.10;;;;;;;;;;5049210;28;20032;-61
2023/04/07 04:30:12;;;;;;;22.02;20.60;;;;;;;;;;5046261;28;20028;-61
2023/04/07 04:32:38;;;;;;;20.38;19.17;;;;;;;;;;5054164;28;20021;-61
2023/04/07 04:35:03;;;;;;;21.27;19.92;;;;;;;;;;5054225;28;20024;-61
2023/04/07 04:37:29;;;;;;;20.05;18.98;;;;;;;;;;5047886;28;20021;-61
2023/04/07 04:39:54;;;;;;;21.95;20.48;;;;;;;;;;5055160;28;20026;-61
2023/04/07 04:42:20;;;;;;;21.42;20.02;;;;;;;;;;5052997;28;20013;-60
2023/04/07 04:44:45;;;;;;;20.27;19.08;;;;;;;;;;5051708;28;20021;-60
2023/04/07 04:47:10;;;;;;;19.52;18.48;;;;;;;;;;5054608;28;20052;-61
2023/04/07 04:49:36;;;;;;;21.38;19.88;;;;;;;;;;5052843;28;20102;-59
2023/04/07 04:52:01;;;;;;;21.58;20.08;;;;;;;;;;5052946;28;20055;-59
2023/04/07 04:54:26;;;;;;;21.10;19.75;;;;;;;;;;5052787;28;20021;-60
2023/04/07 04:56:52;;;;;;;20.42;19.23;;;;;;;;;;5051122;28;20051;-59
2023/04/07 04:59:17;;;;;;;20.33;19.17;;;;;;;;;;5052889;28;20467;-59
2023/04/07 05:01:42;;;;;;;19.98;18.80;;;;;;;;;;5057617;28;20021;-59
2023/04/07 05:04:09;;;;;;;20.13;18.92;;;;;;;;;;5052473;28;20032;-59
2023/04/07 05:06:34;;;;;;;19.38;18.27;;;;;;;;;;5051528;28;20057;-59
2023/04/07 05:08:59;;;;;;;19.70;18.50;;;;;;;;;;5051317;28;20059;-59
2023/04/07 05:11:25;;;;;;;20.45;19.15;;;;;;;;;;5053023;28;20064;-59
2023/04/07 05:13:50;;;;;;;19.58;18.42;;;;;;;;;;5054172;28;20051;-59
2023/04/07 05:16:16;;;;;;;19.30;18.20;;;;;;;;;;5053665;28;20048;-59
2023/04/07 05:18:41;;;;;;;19.63;18.50;;;;;;;;;;5049286;28;20393;-62
2023/04/07 05:21:06;;;;;;;20.90;19.55;;;;;;;;;;5048368;28;20072;-61
2023/04/07 05:23:31;;;;;;;19.25;18.23;;;;;;;;;;5046711;28;20028;-62
2023/04/07 05:25:57;;;;;;;20.35;19.05;;;;;;;;;;5048995;28;20469;-60
2023/04/07 05:28:23;;;;;;;18.30;17.40;;;;;;;;;;5039996;28;20029;-62
2023/04/07 05:30:48;;;;;;;19.13;18.02;;;;;;;;;;5040819;28;20086;-61
2023/04/07 05:33:14;;;;;;;18.30;17.40;;;;;;;;;;5047071;28;20492;-61
2023/04/07 05:35:39;;;;;;;19.40;18.20;;;;;;;;;;5050088;28;20103;-62
2023/04/07 05:38:05;;;;;;;19.25;18.05;;;;;;;;;;5051608;28;20384;-59
2023/04/07 05:40:30;;;;;;;18.55;17.45;;;;;;;;;;5052790;28;20023;-61
2023/04/07 05:42:55;;;;;;;18.13;17.02;;;;;;;;;;5050991;28;20483;-61
2023/04/07 05:45:21;;;;;;;19.88;18.48;;;;;;;;;;5048187;28;20033;-60
2023/04/07 05:47:49;;;;;;;19.83;18.40;;;;;;;;;;5044988;28;20388;-61
2023/04/07 05:50:17;;;;;;;19.10;17.88;;;;;;;;;;5050991;28;20033;-61
2023/04/07 05:52:43;;;;;;;18.67;17.48;;;;;;;;;;5052165;28;20423;-60
2023/04/07 05:55:08;;;;;;;18.30;17.20;;;;;;;;;;5044566;28;20029;-60
2023/04/07 05:57:33;;;;;;;17.73;16.67;;;;;;;;;;5050629;28;20049;-61
2023/04/07 05:59:59;;;;;;;17.23;16.33;;;;;;;;;;5051934;28;20101;-59
2023/04/07 06:02:24;;;;;;;18.50;17.40;;;;;;;;;;5045090;28;20037;-61
2023/04/07 06:04:50;;;;;;;18.70;17.58;;;;;;;;;;5048292;28;20671;-61
2023/04/07 06:07:15;;;;;;;19.08;17.88;;;;;;;;;;5050487;28;20439;-62
2023/04/07 06:09:41;;;;;;;19.88;18.55;;;;;;;;;;5051373;28;20112;-60
2023/04/07 06:12:07;;;;;;;20.45;19.05;;;;;;;;;;5050403;28;20048;-61
2023/04/07 06:14:32;;;;;;;20.98;19.52;;;;;;;;;;5052024;28;20025;-60
2023/04/07 06:16:57;;;;;;;19.52;18.33;;;;;;;;;;5050534;28;20051;-59
2023/04/07 06:19:22;;;;;;;19.15;18.02;;;;;;;;;;5046392;28;20059;-61
2023/04/07 06:21:48;;;;;;;22.90;21.10;;;;;;;;;;5046412;28;20032;-63
2023/04/07 06:24:13;;;;;;;18.10;17.20;;;;;;;;;;5059462;28;20041;-64
2023/04/07 06:26:39;;;;;;;19.70;18.50;;;;;;;;;;5041117;28;20033;-64
2023/04/07 06:29:05;;;;;;;21.13;19.60;;;;;;;;;;5047570;28;20048;-63
2023/04/07 06:31:30;;;;;;;20.58;19.27;;;;;;;;;;5042346;28;20029;-64
2023/04/07 06:33:55;;;;;;;20.27;19.10;;;;;;;;;;5050194;28;20035;-64
2023/04/07 06:36:22;;;;;;;22.15;20.58;;;;;;;;;;5048990;28;20020;-64
2023/04/07 06:38:47;;;;;;;24.75;22.63;;;;;;;;;;5044338;28;20033;-65
2023/04/07 06:41:15;;;;;;;21.35;19.83;;;;;;;;;;5048813;28;20087;-66
2023/04/07 06:43:41;;;;;;;21.67;20.08;;;;;;;;;;5047087;28;20029;-64
2023/04/07 06:46:06;;;;;;;22.30;20.50;;;;;;;;;;5049207;28;20032;-64
2023/04/07 06:48:32;;;;;;;20.40;18.98;;;;;;;;;;5044264;28;20750;-63
2023/04/07 06:50:57;;;;;;;19.63;18.33;;;;;;;;;;5057132;28;20090;-65
2023/04/07 06:53:22;;;;;;;19.25;18.05;;;;;;;;;;5043781;28;20036;-64
2023/04/07 06:55:47;;;;;;;21.60;19.95;;;;;;;;;;5045631;28;20052;-66
2023/04/07 06:58:13;;;;;;;19.25;18.00;;;;;;;;;;5047594;28;20041;-65
2023/04/07 07:00:38;;;;;;;20.23;18.80;;;;;;;;;;5057871;28;20446;-64
2023/04/07 07:03:03;;;;;;;22.75;20.85;;;;;;;;;;5046958;28;20472;-64
2023/04/07 07:05:29;;;;;;;20.40;18.90;;;;;;;;;;5052664;28;20023;-65
2023/04/07 07:07:54;;;;;;;19.30;18.02;;;;;;;;;;5062148;28;20166;-65
2023/04/07 07:10:21;;;;;;;20.48;18.98;;;;;;;;;;5047323;28;20027;-65
2023/04/07 07:12:48;;;;;;;19.80;18.40;;;;;;;;;;5040976;28;20061;-64
2023/04/07 07:15:13;;;;;;;21.88;20.13;;;;;;;;;;5050000;28;20064;-63
2023/04/07 07:17:38;;;;;;;20.35;18.85;;;;;;;;;;5054897;28;20466;-63
2023/04/07 07:20:04;;;;;;;20.92;19.33;;;;;;;;;;5044865;28;20801;-62
2023/04/07 07:22:29;;;;;;;21.00;19.42;;;;;;;;;;5051081;28;20068;-66
2023/04/07 07:24:55;;;;;;;20.92;19.33;;;;;;;;;;5057511;28;20098;-65
2023/04/07 07:27:20;;;;;;;20.52;19.02;;;;;;;;;;5055673;28;20518;-66
2023/04/07 07:29:45;;;;;;;20.27;18.88;;;;;;;;;;5052069;28;20021;-63
2023/04/07 07:32:11;;;;;;;21.25;19.65;;;;;;;;;;5056372;28;20111;-64
2023/04/07 07:34:36;;;;;;;20.85;19.35;;;;;;;;;;5061119;28;20036;-65
2023/04/07 07:37:02;;;;;;;21.90;20.20;;;;;;;;;;5049822;28;20032;-64
2023/04/07 07:39:28;;;;;;;22.65;20.83;;;;;;;;;;5054926;28;20013;-65
2023/04/07 07:41:54;;;;;;;21.08;19.58;;;;;;;;;;5054149;28;20081;-63
2023/04/07 07:44:21;;;;;;;21.42;19.92;;;;;;;;;;5055248;28;20079;-67
2023/04/07 07:46:46;;;;;;;23.00;21.20;;;;;;;;;;5042364;28;20041;-64
2023/04/07 07:49:12;;;;;;;21.80;20.15;;;;;;;;;;5042429;28;20087;-65
2023/04/07 07:51:39;;;;;;;20.65;19.15;;;;;;;;;;5045254;28;20388;-66
2023/04/07 07:54:05;;;;;;;19.60;18.30;;;;;;;;;;5048149;28;20195;-64
2023/04/07 07:56:30;;;;;;;20.45;19.05;;;;;;;;;;5058256;28;20560;-66
2023/04/07 07:58:55;;;;;;;21.17;19.67;;;;;;;;;;5050205;28;20021;-66
2023/04/07 08:01:21;;;;;;;20.30;18.90;;;;;;;;;;5042549;28;20028;-66
2023/04/07 08:03:46;;;;;;;21.55;19.95;;;;;;;;;;5051016;28;20476;-66
2023/04/07 08:06:11;;;;;;;22.10;20.48;;;;;;;;;;5046043;28;20036;-66
2023/04/07 08:08:37;;;;;;;21.17;19.67;;;;;;;;;;5048702;28;20024;-66
2023/04/07 08:11:02;;;;;;;22.00;20.40;;;;;;;;;;5053118;28;20028;-65
2023/04/07 08:13:28;;;;;;;20.33;19.02;;;;;;;;;;5049707;28;20480;-64
2023/04/07 08:15:53;;;;;;;21.45;19.95;;;;;;;;;;5051348;28;20544;-64
2023/04/07 08:18:18;;;;;;;21.77;20.17;;;;;;;;;;5048276;28;20021;-65
2023/04/07 08:20:44;;;;;;;21.08;19.63;;;;;;;;;;5044489;28;20029;-64
2023/04/07 08:23:09;;;;;;;23.38;21.45;;;;;;;;;;5052065;28;20028;-64
2023/04/07 08:25:35;;;;;;;20.98;19.48;;;;;;;;;;5053098;28;20025;-62
2023/04/07 08:28:00;;;;;;;21.23;19.73;;;;;;;;;;5043480;28;20407;-63
2023/04/07 08:30:25;;;;;;;21.10;19.58;;;;;;;;;;5047650;28;20025;-64
2023/04/07 08:32:51;;;;;;;21.23;19.67;;;;;;;;;;5060850;28;20484;-63
2023/04/07 08:35:16;;;;;;;21.35;19.83;;;;;;;;;;5051452;28;20025;-63
2023/04/07 08:37:43;;;;;;;20.50;19.10;;;;;;;;;;5048919;28;20029;-64
2023/04/07 08:40:09;;;;;;;21.25;19.70;;;;;;;;;;5044429;28;20443;-65
2023/04/07 08:42:39;;;;;;;20.73;19.33;;;;;;;;;;5050713;28;20021;-65
2023/04/07 08:45:05;;;;;;;21.63;20.02;;;;;;;;;;5046637;28;20476;-63
2023/04/07 08:47:32;;;;;;;21.08;19.58;;;;;;;;;;5046633;28;20021;-63
2023/04/07 08:50:02;;;;;;;20.98;19.50;;;;;;;;;;5053314;28;20035;-61
2023/04/07 08:52:35;;;;;;;21.02;19.52;;;;;;;;;;5063560;28;20021;-61
2023/04/07 08:55:02;;;;;;;19.40;18.20;;;;;;;;;;5049649;28;20040;-63
2023/04/07 08:57:31;;;;;;;20.45;19.05;;;;;;;;;;5043745;28;20048;-64
2023/04/07 08:59:59;;;;;;;20.95;19.45;;;;;;;;;;5044483;28;20641;-64
2023/04/07 09:02:24;;;;;;;19.35;18.15;;;;;;;;;;5043009;28;20740;-63
2023/04/07 09:04:50;;;;;;;21.58;19.95;;;;;;;;;;5044200;28;20031;-64
2023/04/07 09:07:15;;;;;;;21.73;20.13;;;;;;;;;;5038000;28;20147;-64
2023/04/07 09:09:41;;;;;;;20.15;18.85;;;;;;;;;;5040801;28;20028;-61
2023/04/07 09:12:06;;;;;;;19.70;18.50;;;;;;;;;;5040470;28;20028;-61
2023/04/07 09:14:31;;;;;;;20.45;19.05;;;;;;;;;;5048611;28;20028;-62
2023/04/07 09:16:58;;;;;;;20.08;18.77;;;;;;;;;;5040989;28;20018;-61
2023/04/07 09:19:26;;;;;;;20.70;19.27;;;;;;;;;;5045300;28;20021;-61
2023/04/07 09:21:52;;;;;;;21.67;20.08;;;;;;;;;;5039768;28;20021;-62
2023/04/07 09:24:28;;;;;;;20.00;18.70;;;;;;;;;;5050022;28;20108;-62
2023/04/07 09:27:13;;;;;;;18.80;17.70;;;;;;;;;;5052176;28;20021;-61
2023/04/07 09:29:40;;;;;;;18.50;17.48;;;;;;;;;;5045478;28;20032;-62
2023/04/07 09:32:05;;;;;;;18.88;17.77;;;;;;;;;;5052481;28;20476;-61
2023/04/07 09:34:32;;;;;;;20.60;19.20;;;;;;;;;;5052677;28;20029;-60
2023/04/07 09:36:57;;;;;;;19.85;18.65;;;;;;;;;;5039508;28;20126;-61
2023/04/07 09:39:23;;;;;;;20.20;18.88;;;;;;;;;;5037786;28;20105;-62
2023/04/07 09:41:49;;;;;;;19.40;18.20;;;;;;;;;;5044654;28;20334;-61
2023/04/07 09:44:14;;;;;;;18.98;17.88;;;;;;;;;;5051141;28;20039;-61
2023/04/07 09:46:56;;;;;;;19.27;18.13;;;;;;;;;;5051094;28;20735;-61
2023/04/07 09:49:24;;;;;;;18.88;17.77;;;;;;;;;;5049488;28;20082;-61
2023/04/07 09:51:56;;;;;;;18.98;17.88;;;;;;;;;;5051594;28;20102;-61
2023/04/07 09:54:34;;;;;;;18.60;17.50;;;;;;;;;;5051788;28;20028;-61
2023/04/07 09:57:01;;;;;;;18.20;17.15;;;;;;;;;;5051904;28;20098;-60
2023/04/07 09:59:27;;;;;;;17.75;16.75;;;;;;;;;;5051981;28;20444;-61
2023/04/07 10:01:52;;;;;;;18.58;17.42;;;;;;;;;;5048170;28;20031;-61
2023/04/07 10:04:18;;;;;;;18.20;17.10;;;;;;;;;;5042185;28;20021;-61
2023/04/07 10:06:45;;;;;;;17.35;16.38;;;;;;;;;;5050779;28;20064;-61
2023/04/07 10:09:10;;;;;;;18.58;17.48;;;;;;;;;;5044378;28;20443;-61
2023/04/07 10:11:36;;;;;;;18.88;17.67;;;;;;;;;;5050877;28;20108;-62
2023/04/07 10:14:02;;;;;;;17.60;16.60;;;;;;;;;;5055954;28;20021;-62
2023/04/07 10:16:28;;;;;;;17.80;16.80;;;;;;;;;;5051617;28;20112;-61
2023/04/07 10:18:53;;;;;;;18.08;17.05;;;;;;;;;;5049064;28;20021;-62
2023/04/07 10:21:19;;;;;;;18.05;17.00;;;;;;;;;;5051327;28;20094;-60
2023/04/07 10:23:47;;;;;;;18.90;17.73;;;;;;;;;;5051743;28;20039;-60
2023/04/07 10:26:15;;;;;;;19.95;18.65;;;;;;;;;;5049976;28;20022;-61
2023/04/07 10:28:42;;;;;;;19.08;17.98;;;;;;;;;;5046296;28;20020;-61
2023/04/07 10:31:08;;;;;;;18.92;17.83;;;;;;;;;;5049811;28;20025;-61
2023/04/07 10:33:46;;;;;;;18.92;17.85;;;;;;;;;;5051525;28;20028;-61
2023/04/07 10:36:12;;;;;;;19.08;17.98;;;;;;;;;;5044206;28;20053;-62
2023/04/07 10:38:37;;;;;;;20.10;18.80;;;;;;;;;;5048119;28;20055;-61
2023/04/07 10:41:21;;;;;;;17.83;16.83;;;;;;;;;;5039614;28;20017;-62
2023/04/07 10:43:46;;;;;;;19.53;18.30;;;;;;;;;;5051527;28;20483;-61
2023/04/07 10:46:11;;;;;;;19.65;18.38;;;;;;;;;;5049012;28;20076;-61
2023/04/07 10:48:37;;;;;;;19.30;18.10;;;;;;;;;;5051216;28;20028;-61
2023/04/07 10:51:06;;;;;;;19.63;18.33;;;;;;;;;;5051109;28;20044;-61
2023/04/07 10:53:32;;;;;;;18.67;17.58;;;;;;;;;;5050871;28;20032;-61
2023/04/07 10:55:58;;;;;;;18.35;17.25;;;;;;;;;;5050901;28;20032;-62
2023/04/07 10:58:32;;;;;;;18.52;17.42;;;;;;;;;;5050940;28;20024;-61
2023/04/07 11:01:07;;;;;;;18.48;17.38;;;;;;;;;;5049263;28;20107;-62
2023/04/07 11:03:51;;;;;;;19.25;17.98;;;;;;;;;;5047291;28;20407;-61
2023/04/07 11:06:16;;;;;;;18.35;17.30;;;;;;;;;;5043975;28;20464;-61
2023/04/07 11:08:45;;;;;;;20.10;18.75;;;;;;;;;;5039871;28;20051;-61
2023/04/07 11:11:12;;;;;;;19.42;18.20;;;;;;;;;;5051020;28;20025;-62
2023/04/07 11:13:45;;;;;;;20.85;19.35;;;;;;;;;;5052786;28;20388;-61
2023/04/07 11:16:11;;;;;;;19.60;18.40;;;;;;;;;;5058038;28;20131;-61
2023/04/07 11:18:37;;;;;;;19.77;18.48;;;;;;;;;;5050109;28;20029;-61
2023/04/07 11:21:04;;;;;;;18.35;17.35;;;;;;;;;;5049411;28;20495;-61
2023/04/07 11:23:36;;;;;;;18.83;17.73;;;;;;;;;;5050557;28;20094;-61
2023/04/07 11:26:01;;;;;;;18.63;17.52;;;;;;;;;;5050677;28;20052;-61
2023/04/07 11:28:27;;;;;;;18.48;17.42;;;;;;;;;;5043166;28;20025;-62
2023/04/07 11:30:53;;;;;;;18.17;17.17;;;;;;;;;;5051075;28;20052;-62
2023/04/07 11:33:22;;;;;;;18.10;17.10;;;;;;;;;;5050872;28;20048;-61
2023/04/07 11:35:52;;;;;;;18.58;17.45;;;;;;;;;;5049671;28;20033;-61
2023/04/07 11:38:18;;;;;;;18.77;17.58;;;;;;;;;;5044072;28;20025;-62
2023/04/07 11:40:43;;;;;;;17.70;16.75;;;;;;;;;;5050133;28;20096;-62
2023/04/07 11:43:18;;;;;;;17.50;16.52;;;;;;;;;;5045049;28;20037;-61
2023/04/07 11:45:44;;;;;;;19.52;18.20;;;;;;;;;;5050266;28;20016;-61
2023/04/07 11:48:29;;;;;;;19.38;18.10;;;;;;;;;;5049163;28;20024;-61
2023/04/07 11:50:55;;;;;;;18.48;17.35;;;;;;;;;;5038682;28;20033;-61
2023/04/07 11:53:27;;;;;;;17.95;16.95;;;;;;;;;;5048244;28;20025;-61
2023/04/07 11:56:16;;;;;;;17.88;16.88;;;;;;;;;;5039227;28;20052;-61
2023/04/07 11:58:54;;;;;;;18.85;17.65;;;;;;;;;;5041545;28;20041;-61
2023/04/07 12:01:19;;;;;;;18.67;17.55;;;;;;;;;;5041568;28;20369;-61
2023/04/07 12:04:01;;;;;;;19.77;18.42;;;;;;;;;;5051058;28;20024;-60
2023/04/07 12:06:29;;;;;;;18.80;17.65;;;;;;;;;;5041451;28;20048;-61
2023/04/07 12:08:54;;;;;;;18.42;17.33;;;;;;;;;;5053421;28;20013;-60
2023/04/07 12:11:19;;;;;;;18.15;17.15;;;;;;;;;;5045364;28;20109;-60
2023/04/07 12:13:45;;;;;;;20.75;19.23;;;;;;;;;;5048568;28;20029;-60
2023/04/07 12:16:10;;;;;;;18.50;17.40;;;;;;;;;;5054395;28;20009;-60
2023/04/07 12:18:36;;;;;;;19.08;17.88;;;;;;;;;;5052665;28;20017;-60
2023/04/07 12:21:01;;;;;;;20.45;19.05;;;;;;;;;;5054059;28;20025;-61
2023/04/07 12:23:26;;;;;;;18.30;17.23;;;;;;;;;;5053776;28;20427;-62
2023/04/07 12:25:52;;;;;;;19.38;18.15;;;;;;;;;;5053243;28;20020;-61
2023/04/07 12:28:17;;;;;;;19.17;17.98;;;;;;;;;;5053327;28;20025;-62
2023/04/07 12:30:43;;;;;;;19.83;18.52;;;;;;;;;;5052080;28;20021;-61
2023/04/07 12:33:08;;;;;;;19.83;18.52;;;;;;;;;;5052202;28;20035;-60
2023/04/07 12:35:34;;;;;;;18.30;17.23;;;;;;;;;;5062194;28;20021;-62
2023/04/07 12:37:59;;;;;;;18.27;17.17;;;;;;;;;;5053483;28;20502;-62
2023/04/07 12:40:25;;;;;;;19.10;17.90;;;;;;;;;;5048628;28;20033;-61
2023/04/07 12:42:50;;;;;;;18.75;17.55;;;;;;;;;;5053655;28;20025;-62
2023/04/07 12:45:16;;;;;;;17.65;16.73;;;;;;;;;;5052116;28;20021;-60
2023/04/07 12:47:42;;;;;;;18.83;17.63;;;;;;;;;;5053812;28;20035;-60
2023/04/07 12:50:07;;;;;;;17.63;16.73;;;;;;;;;;5054158;28;20025;-61
2023/04/07 12:52:33;;;;;;;18.40;17.30;;;;;;;;;;5053130;28;20559;-61
2023/04/07 12:54:58;;;;;;;17.27;16.38;;;;;;;;;;5052331;28;20500;-61
2023/04/07 12:57:23;;;;;;;18.08;17.08;;;;;;;;;;5044106;28;20135;-61
2023/04/07 12:59:49;;;;;;;20.23;18.83;;;;;;;;;;5052460;28;20017;-61
2023/04/07 13:02:16;;;;;;;18.55;17.45;;;;;;;;;;5052589;28;20443;-61
2023/04/07 13:04:45;;;;;;;18.48;17.27;;;;;;;;;;5053006;28;20021;-62
2023/04/07 13:07:11;;;;;;;19.00;17.80;;;;;;;;;;5053200;28;20066;-60
2023/04/07 13:09:36;;;;;;;18.60;17.42;;;;;;;;;;5042391;28;20029;-61
2023/04/07 13:12:02;;;;;;;18.88;17.73;;;;;;;;;;5048234;28;20028;-61
2023/04/07 13:14:27;;;;;;;18.55;17.42;;;;;;;;;;5061233;28;20065;-61
2023/04/07 13:16:52;;;;;;;19.42;18.15;;;;;;;;;;5054125;28;20028;-61
2023/04/07 13:19:17;;;;;;;20.33;18.92;;;;;;;;;;5047408;28;20108;-62
2023/04/07 13:21:43;;;;;;;18.20;17.13;;;;;;;;;;5042756;28;20024;-62
2023/04/07 13:24:08;;;;;;;19.75;18.45;;;;;;;;;;5037071;28;20037;-62
2023/04/07 13:26:33;;;;;;;19.25;18.05;;;;;;;;;;5044245;28;20017;-62
2023/04/07 13:28:59;;;;;;;18.50;17.45;;;;;;;;;;5043564;28;20021;-61
2023/04/07 13:31:24;;;;;;;19.30;18.10;;;;;;;;;;5050618;28;20076;-60
2023/04/07 13:33:50;;;;;;;19.33;18.17;;;;;;;;;;5052343;28;20444;-60
2023/04/07 13:36:15;;;;;;;19.70;18.40;;;;;;;;;;5047971;28;20033;-60
2023/04/07 13:38:41;;;;;;;21.30;19.70;;;;;;;;;;5049957;28;20117;-61
2023/04/07 13:41:06;;;;;;;18.77;17.67;;;;;;;;;;5048379;28;20029;-60
2023/04/07 13:43:31;;;;;;;18.63;17.58;;;;;;;;;;5051327;28;20028;-61
2023/04/07 13:45:57;;;;;;;18.90;17.80;;;;;;;;;;5049608;28;20024;-61
2023/04/07 13:48:22;;;;;;;18.70;17.60;;;;;;;;;;5052094;28;20047;-61
2023/04/07 13:50:48;;;;;;;19.35;18.15;;;;;;;;;;5048450;28;20029;-61
2023/04/07 13:53:13;;;;;;;18.08;17.08;;;;;;;;;;5040993;28;20052;-61
2023/04/07 13:55:39;;;;;;;19.75;18.48;;;;;;;;;;5045852;28;20056;-61
2023/04/07 13:58:05;;;;;;;19.77;18.48;;;;;;;;;;5051541;28;20129;-60
2023/04/07 14:00:30;;;;;;;19.35;18.15;;;;;;;;;;5052007;28;20163;-63
2023/04/07 14:02:56;;;;;;;20.83;19.33;;;;;;;;;;5049215;28;20028;-61
2023/04/07 14:05:21;;;;;;;19.40;18.20;;;;;;;;;;5051991;28;20021;-61
2023/04/07 14:07:47;;;;;;;20.00;18.70;;;;;;;;;;5052045;28;20039;-61
2023/04/07 14:10:12;;;;;;;17.98;16.98;;;;;;;;;;5039264;28;20017;-61
2023/04/07 14:12:37;;;;;;;19.10;17.90;;;;;;;;;;5051956;28;20025;-61
2023/04/07 14:15:03;;;;;;;17.92;16.92;;;;;;;;;;5061760;28;20021;-61